Lucknow, South Carolina
Current Conditions -  °F | °C
As of 8:35 PM on Friday 28 Nov 2014 (Local Time) from KCDN Reporting Station
Clear Clear  
Wind Chill: 32°   Ceiling: Unl
Heat Index: 32°   Visibility: 10mi
Dew Point: 28°   Wind: 0mph
Humidity: 87%   Direction: NA
Pressure: 30.34"   Gusts: NA
Location:  34.2324°N, 80.2824°W
Report Text: KCDN 290135Z AUTO 00000KT 10SM CLR 00/M02 A3034 RMK AO2 TSNO
Loading
Personal Weather Stations






























Interactive Weather Map New forecast layout! Learn more

10-Day Weather Forecast

Advertisements
Track Severe Weather on mobile